createdAt,value
2022-08-18T00:04:53.260Z,31.05
2022-08-18T00:10:02.262Z,26.20
2022-08-18T00:15:10.341Z,33.38
2022-08-18T00:20:18.827Z,33.18
2022-08-18T00:25:45.599Z,35.45
2022-08-18T00:30:53.880Z,35.58
2022-08-18T00:35:57.637Z,39.13
2022-08-18T00:41:03.866Z,35.10
2022-08-18T00:46:19.505Z,31.80
2022-08-18T00:51:30.696Z,33.47
2022-08-18T00:56:46.613Z,45.33
2022-08-18T01:01:55.955Z,35.40
2022-08-18T01:07:10.005Z,38.58
2022-08-18T01:12:43.979Z,35.63
2022-08-18T01:17:40.872Z,37.27
2022-08-18T01:22:51.780Z,37.77
2022-08-18T01:28:00.827Z,38.60
2022-08-18T01:33:06.167Z,45.60
2022-08-18T01:38:13.740Z,35.85
2022-08-18T01:43:19.467Z,36.07
2022-08-18T01:48:24.606Z,37.83
2022-08-18T01:53:29.808Z,37.27
2022-08-18T01:58:37.365Z,38.07
2022-08-18T02:03:46.210Z,36.47
2022-08-18T02:08:53.689Z,32.73
2022-08-18T02:13:58.313Z,37.40
2022-08-18T02:19:03.860Z,36.27
2022-08-18T02:24:08.990Z,37.35
2022-08-18T02:29:14.863Z,38.17
2022-08-18T02:34:20.422Z,33.50
2022-08-18T02:39:25.432Z,40.43
2022-08-18T02:44:32.272Z,37.57
2022-08-18T02:49:37.469Z,37.50
2022-08-18T02:54:42.728Z,35.13
2022-08-18T02:59:48.458Z,42.05
2022-08-18T03:04:54.206Z,41.07
2022-08-18T03:10:03.081Z,40.00
2022-08-18T03:15:06.742Z,47.37
2022-08-18T03:20:12.558Z,55.30
2022-08-18T03:25:17.822Z,50.73
2022-08-18T03:30:24.038Z,48.30
2022-08-18T03:35:30.722Z,44.27
2022-08-18T03:40:36.902Z,45.27
2022-08-18T03:45:42.181Z,42.50
2022-08-18T03:50:48.935Z,45.57
2022-08-18T03:55:54.157Z,94.27
2022-08-18T04:00:59.534Z,82.87
2022-08-18T04:06:07.762Z,131.45
2022-08-18T04:11:14.831Z,135.13
2022-08-18T04:16:20.081Z,127.40
2022-08-18T04:21:25.597Z,114.03
2022-08-18T04:26:31.896Z,91.35
2022-08-18T04:31:38.497Z,80.17
2022-08-18T04:36:45.142Z,69.37
2022-08-18T04:41:50.352Z,76.90
2022-08-18T04:46:56.353Z,77.40
2022-08-18T04:52:34.333Z,66.03
2022-08-18T04:57:26.999Z,56.02
2022-08-18T05:02:33.844Z,37.70
2022-08-18T05:07:41.983Z,36.90
2022-08-18T05:12:49.692Z,38.77
2022-08-18T05:17:56.766Z,39.83
2022-08-18T05:23:04.164Z,43.87
2022-08-18T05:28:10.254Z,43.53
2022-08-18T05:33:15.579Z,38.00
2022-08-18T05:38:40.124Z,43.37
2022-08-18T05:43:51.397Z,39.47
2022-08-18T05:48:54.245Z,37.17
2022-08-18T05:54:18.816Z,39.55
2022-08-18T05:59:30.031Z,45.40
2022-08-18T06:04:38.609Z,41.83
2022-08-18T06:09:50.199Z,40.85
2022-08-18T06:15:01.565Z,33.90
2022-08-18T06:20:29.468Z,38.17
2022-08-18T06:26:13.949Z,42.23
2022-08-18T06:31:29.628Z,43.02
2022-08-18T06:37:01.887Z,40.78
2022-08-18T06:42:07.977Z,40.08
2022-08-18T06:47:35.484Z,45.40
2022-08-18T06:52:43.606Z,37.70
2022-08-18T06:58:00.345Z,44.10
2022-08-18T07:03:10.929Z,30.57
2022-08-18T07:08:19.107Z,31.85
2022-08-18T07:13:27.552Z,26.12
2022-08-18T07:18:32.921Z,22.70
2022-08-18T07:23:40.937Z,32.23
2022-08-18T07:28:49.687Z,25.80
2022-08-18T07:34:00.610Z,23.67
2022-08-18T07:39:14.735Z,26.70
2022-08-18T07:44:43.641Z,22.13
2022-08-18T07:50:15.563Z,29.82
2022-08-18T07:55:09.901Z,26.33
2022-08-18T08:00:57.381Z,24.70
2022-08-18T08:05:57.877Z,20.70
2022-08-18T08:11:09.073Z,18.57
2022-08-18T08:16:44.860Z,19.60
2022-08-18T08:21:53.378Z,17.73
2022-08-18T08:27:01.705Z,21.77
2022-08-18T08:32:13.557Z,15.75
2022-08-18T08:37:27.741Z,15.55
2022-08-18T08:42:41.335Z,21.23
2022-08-18T08:48:08.453Z,19.70
2022-08-18T08:53:17.352Z,17.02
2022-08-18T08:58:34.561Z,20.12
2022-08-18T09:03:51.592Z,13.00
2022-08-18T09:09:05.776Z,14.10
2022-08-18T09:14:20.018Z,16.97
2022-08-18T09:19:30.989Z,16.27
2022-08-18T09:24:54.177Z,16.45
2022-08-18T09:30:02.524Z,13.60
2022-08-18T09:35:29.181Z,19.75
2022-08-18T09:41:02.675Z,22.17
2022-08-18T09:46:19.226Z,18.25
2022-08-18T09:51:36.519Z,19.42
2022-08-18T09:56:55.523Z,16.73
2022-08-18T10:02:03.658Z,18.37
2022-08-18T10:07:22.599Z,11.40
2022-08-18T10:12:36.653Z,15.08
2022-08-18T10:17:50.000Z,17.20
2022-08-18T10:22:55.032Z,12.75
2022-08-18T10:28:02.152Z,13.98
2022-08-18T10:33:17.781Z,14.78
2022-08-18T10:38:32.485Z,12.13
2022-08-18T10:49:08.815Z,10.40
2022-08-18T10:54:20.125Z,17.50
2022-08-18T10:59:47.838Z,14.28
2022-08-18T11:10:28.548Z,12.15
2022-08-18T11:15:22.401Z,14.35
2022-08-18T11:20:23.530Z,15.95
2022-08-18T11:25:38.734Z,12.23
2022-08-18T11:30:45.979Z,15.83
2022-08-18T11:36:01.749Z,13.28
2022-08-18T11:41:17.736Z,13.88
2022-08-18T11:46:45.128Z,12.45
2022-08-18T11:52:03.346Z,13.25
2022-08-18T11:57:30.253Z,12.15
2022-08-18T12:02:36.445Z,11.28
2022-08-18T12:07:57.059Z,13.53
2022-08-18T12:12:55.729Z,15.58
2022-08-18T12:18:01.322Z,16.48
2022-08-18T12:23:38.957Z,12.18
2022-08-18T12:28:35.958Z,13.32
2022-08-18T12:33:48.464Z,10.48
2022-08-18T12:38:51.860Z,18.80
2022-08-18T12:43:59.203Z,12.63
2022-08-18T12:49:04.505Z,13.40
2022-08-18T13:16:54.087Z,15.45
2022-08-18T13:21:42.874Z,15.65
2022-08-18T13:26:50.250Z,15.90
2022-08-18T13:31:59.383Z,14.78
2022-08-18T13:37:06.227Z,13.30
2022-08-18T13:42:26.068Z,17.15
2022-08-18T13:47:18.132Z,12.20
2022-08-18T13:52:34.386Z,12.63
2022-08-18T13:57:38.912Z,20.20
2022-08-18T14:02:48.084Z,10.48
2022-08-18T14:07:53.543Z,12.13
2022-08-18T14:13:07.911Z,10.03
2022-08-18T14:18:09.103Z,13.45
2022-08-18T14:23:33.896Z,12.70
2022-08-18T14:28:41.426Z,15.30
2022-08-18T14:33:50.819Z,9.20
2022-08-18T14:38:55.346Z,9.68
2022-08-18T14:44:13.376Z,10.70
2022-08-18T14:49:10.929Z,11.28
2022-08-18T14:54:35.966Z,14.10
2022-08-18T14:59:41.237Z,14.80
2022-08-18T15:04:53.144Z,10.78
2022-08-18T15:10:14.941Z,12.10
2022-08-18T15:15:02.018Z,12.30
2022-08-18T15:20:08.990Z,13.25
2022-08-18T15:25:37.373Z,12.82
2022-08-18T15:30:44.195Z,12.07
2022-08-18T15:35:54.725Z,9.00
2022-08-18T15:41:06.208Z,12.00
2022-08-18T15:46:10.926Z,9.03
2022-08-18T15:51:19.855Z,8.43
2022-08-18T15:56:26.674Z,13.88
2022-08-18T16:01:33.138Z,7.72
2022-08-18T16:06:41.166Z,9.93
2022-08-18T16:11:48.012Z,10.13
2022-08-18T16:16:55.655Z,9.40
2022-08-18T16:22:00.933Z,10.00
2022-08-18T16:27:09.323Z,10.93
2022-08-18T16:32:16.333Z,11.93
2022-08-18T16:37:23.305Z,11.28
2022-08-18T16:42:32.492Z,11.60
2022-08-18T16:47:40.696Z,12.37
2022-08-18T16:52:48.749Z,14.47
2022-08-18T16:58:15.434Z,12.10
2022-08-18T17:03:37.511Z,18.20
2022-08-18T17:10:37.432Z,13.88
2022-08-18T17:15:50.454Z,14.30
2022-08-18T17:20:56.265Z,13.80
2022-08-18T17:26:03.358Z,22.73
2022-08-18T17:31:10.131Z,16.65
2022-08-18T17:36:18.435Z,17.60
2022-08-18T17:41:25.830Z,11.80
2022-08-18T17:46:34.512Z,15.40
2022-08-18T17:51:46.124Z,15.50
2022-08-18T17:57:06.647Z,12.10
2022-08-18T18:02:29.652Z,16.85
2022-08-18T18:07:51.894Z,16.67
2022-08-18T18:13:34.387Z,12.47
2022-08-18T18:18:42.983Z,19.20
2022-08-18T18:23:51.239Z,14.68
2022-08-18T18:29:19.535Z,16.00
2022-08-18T18:34:33.923Z,16.07
2022-08-18T18:39:39.715Z,18.17
2022-08-18T18:44:54.096Z,16.50
2022-08-18T18:50:02.278Z,17.95
2022-08-18T18:55:10.523Z,17.12
2022-08-18T19:00:24.547Z,16.35
2022-08-18T19:05:37.190Z,11.75
2022-08-18T19:11:07.548Z,11.63
2022-08-18T19:16:23.588Z,11.68
2022-08-18T19:22:03.205Z,12.47
2022-08-18T19:26:46.817Z,13.45
2022-08-18T19:32:04.184Z,21.25
2022-08-18T19:37:22.736Z,18.75
2022-08-18T19:42:40.415Z,18.62
2022-08-18T19:47:52.289Z,15.63
2022-08-18T19:53:35.066Z,12.55
2022-08-18T19:59:18.272Z,18.57
2022-08-18T20:04:29.874Z,21.85
2022-08-18T20:10:08.380Z,21.82
2022-08-18T20:15:19.293Z,26.23
2022-08-18T20:20:29.905Z,26.37
2022-08-18T20:25:43.998Z,28.30
2022-08-18T20:31:11.989Z,24.65
2022-08-18T20:36:31.603Z,21.50
2022-08-18T20:41:42.301Z,23.10
2022-08-18T20:46:54.259Z,21.05
2022-08-18T20:52:09.213Z,19.40
2022-08-18T20:57:15.114Z,18.85
2022-08-18T21:02:28.929Z,19.15
2022-08-18T21:07:37.885Z,21.62
2022-08-18T21:12:55.706Z,23.05
2022-08-18T21:18:09.982Z,17.52
2022-08-18T21:23:18.492Z,23.15
2022-08-18T21:28:26.031Z,19.45
2022-08-18T21:33:33.500Z,19.52
2022-08-18T21:38:39.222Z,17.85
2022-08-18T21:43:49.815Z,25.75
2022-08-18T21:48:58.477Z,24.00
2022-08-18T21:54:04.364Z,26.65
2022-08-18T21:59:18.716Z,19.40
2022-08-18T22:04:29.907Z,20.45
2022-08-18T22:09:55.747Z,18.70
2022-08-18T22:15:19.202Z,29.80
2022-08-18T22:20:45.837Z,26.65
2022-08-18T22:25:51.388Z,23.00
2022-08-18T22:30:59.699Z,25.57
2022-08-18T22:36:06.251Z,29.53
2022-08-18T22:41:11.630Z,28.92
2022-08-18T22:46:21.704Z,27.90
2022-08-18T22:51:28.472Z,27.80
2022-08-18T22:56:35.302Z,24.10
2022-08-18T23:01:44.434Z,34.25
2022-08-18T23:06:53.906Z,27.58
2022-08-18T23:12:02.422Z,27.73
2022-08-18T23:17:13.697Z,26.90
2022-08-18T23:22:19.646Z,28.60
2022-08-18T23:27:24.964Z,30.70
2022-08-18T23:32:32.159Z,26.37
2022-08-18T23:37:38.316Z,32.15
2022-08-18T23:42:43.807Z,25.27
2022-08-18T23:47:49.104Z,29.70
2022-08-18T23:53:00.171Z,27.25
2022-08-18T23:58:07.052Z,25.08
